ZAP583 EGPH-EGPK
Flight info
| Callsign | ZAP583 |
|---|---|
| Flight time | 0h 16m |
| Altitude | 14000 |
| Route | TLA DCT TRN |
| Aircraft | A320/M-SDE3FGHIRWY/LB1 |
Departure
| Time | 2026-05-04 13:50 |
|---|---|
| Airport | Edinburgh Airport (EGPH) |
Arrival
| Time | 2026-05-04 14:06 |
|---|---|
| Airport | Glasgow Prestwick Airport (EGPK) |
| Time | Latitude | Longitude | Altitude | Speed | Heading |
|---|---|---|---|---|---|
| 2026-05-04 13:20 | 55.95023 | -3.34833 | 113 ft | 0 kts | 28° |
| 2026-05-04 13:41 | 55.95002 | -3.34853 | 113 ft | 4 kts | 29° |
| 2026-05-04 13:41 | 55.94983 | -3.34873 | 115 ft | 4 kts | 42° |
| 2026-05-04 13:42 | 55.94974 | -3.34943 | 112 ft | 0 kts | 118° |
| 2026-05-04 13:44 | 55.94964 | -3.34910 | 114 ft | 6 kts | 118° |
| 2026-05-04 13:44 | 55.94923 | -3.34827 | 116 ft | 11 kts | 167° |
| 2026-05-04 13:45 | 55.94850 | -3.34917 | 115 ft | 16 kts | 218° |
| 2026-05-04 13:45 | 55.94856 | -3.35053 | 115 ft | 16 kts | 301° |
| 2026-05-04 13:45 | 55.94920 | -3.35261 | 114 ft | 21 kts | 297° |
| 2026-05-04 13:45 | 55.95000 | -3.35512 | 115 ft | 23 kts | 300° |
| 2026-05-04 13:46 | 55.95074 | -3.35752 | 117 ft | 18 kts | 300° |
| 2026-05-04 13:46 | 55.95131 | -3.35894 | 113 ft | 16 kts | 303° |
| 2026-05-04 13:46 | 55.95231 | -3.35974 | 113 ft | 17 kts | 26° |
| 2026-05-04 13:46 | 55.95304 | -3.35783 | 113 ft | 21 kts | 60° |
| 2026-05-04 13:47 | 55.95388 | -3.35533 | 114 ft | 24 kts | 58° |
| 2026-05-04 13:47 | 55.95455 | -3.35406 | 114 ft | 6 kts | 359° |
| 2026-05-04 13:47 | 55.95491 | -3.35436 | 113 ft | 0 kts | 327° |
| 2026-05-04 13:48 | 55.95537 | -3.35483 | 112 ft | 18 kts | 330° |
| 2026-05-04 13:48 | 55.95553 | -3.35611 | 113 ft | 0 kts | 241° |
| 2026-05-04 13:48 | 55.95552 | -3.35615 | 113 ft | 0 kts | 239° |
| 2026-05-04 13:49 | 55.95551 | -3.35617 | 113 ft | 2 kts | 239° |
| 2026-05-04 13:49 | 55.95390 | -3.36110 | 110 ft | 106 kts | 239° |
| 2026-05-04 13:49 | 55.94859 | -3.37636 | 476 ft | 170 kts | 242° |
| 2026-05-04 13:50 | 55.94192 | -3.39586 | 1507 ft | 198 kts | 242° |
| 2026-05-04 13:50 | 55.93425 | -3.41823 | 2816 ft | 226 kts | 242° |
| 2026-05-04 13:50 | 55.92575 | -3.44302 | 4006 ft | 241 kts | 242° |
| 2026-05-04 13:50 | 55.91674 | -3.46919 | 5196 ft | 252 kts | 240° |
| 2026-05-04 13:51 | 55.90763 | -3.49560 | 6519 ft | 255 kts | 240° |
| 2026-05-04 13:51 | 55.89833 | -3.52292 | 7731 ft | 260 kts | 242° |
| 2026-05-04 13:51 | 55.88912 | -3.55091 | 8991 ft | 264 kts | 242° |
| 2026-05-04 13:51 | 55.87780 | -3.57689 | 10089 ft | 276 kts | 220° |
| 2026-05-04 13:52 | 55.83860 | -3.58451 | 11774 ft | 324 kts | 160° |
| 2026-05-04 13:52 | 55.81929 | -3.56052 | 12214 ft | 355 kts | 137° |
| 2026-05-04 13:52 | 55.80120 | -3.52939 | 12952 ft | 366 kts | 142° |
| 2026-05-04 13:53 | 55.77953 | -3.50551 | 13713 ft | 370 kts | 159° |
| 2026-05-04 13:53 | 55.75517 | -3.49083 | 13951 ft | 369 kts | 165° |
| 2026-05-04 13:53 | 55.73028 | -3.47728 | 14010 ft | 386 kts | 166° |
| 2026-05-04 13:54 | 55.67600 | -3.44852 | 14027 ft | 416 kts | 166° |
| 2026-05-04 13:54 | 55.64820 | -3.43363 | 14029 ft | 418 kts | 165° |
| 2026-05-04 13:54 | 55.59205 | -3.40687 | 14027 ft | 415 kts | 176° |
| 2026-05-04 13:55 | 55.56344 | -3.40863 | 14029 ft | 410 kts | 193° |
| 2026-05-04 13:55 | 55.51364 | -3.45241 | 14024 ft | 398 kts | 225° |
| 2026-05-04 13:55 | 55.49648 | -3.48799 | 13559 ft | 379 kts | 239° |
| 2026-05-04 13:56 | 55.48538 | -3.52992 | 12660 ft | 369 kts | 254° |
| 2026-05-04 13:56 | 55.48051 | -3.57277 | 11430 ft | 353 kts | 262° |
| 2026-05-04 13:56 | 55.47396 | -3.65319 | 10329 ft | 300 kts | 262° |
| 2026-05-04 13:57 | 55.47111 | -3.68808 | 10084 ft | 277 kts | 262° |
| 2026-05-04 13:57 | 55.46840 | -3.72119 | 9908 ft | 272 kts | 262° |
| 2026-05-04 13:58 | 55.46013 | -3.81954 | 9501 ft | 270 kts | 262° |
| 2026-05-04 13:58 | 55.45453 | -3.88423 | 9246 ft | 260 kts | 262° |
| 2026-05-04 13:58 | 55.45180 | -3.91564 | 8714 ft | 263 kts | 262° |
| 2026-05-04 13:59 | 55.44899 | -3.94806 | 8065 ft | 272 kts | 262° |
| 2026-05-04 13:59 | 55.44608 | -3.98138 | 7402 ft | 279 kts | 262° |
| 2026-05-04 13:59 | 55.44104 | -4.03853 | 6263 ft | 288 kts | 261° |
| 2026-05-04 14:00 | 55.43789 | -4.07413 | 5520 ft | 292 kts | 261° |
| 2026-05-04 14:00 | 55.43160 | -4.14512 | 4066 ft | 295 kts | 262° |
| 2026-05-04 14:00 | 55.42854 | -4.17945 | 3927 ft | 278 kts | 262° |
| 2026-05-04 14:01 | 55.42563 | -4.21206 | 3866 ft | 260 kts | 262° |
| 2026-05-04 14:01 | 55.42289 | -4.24259 | 3811 ft | 245 kts | 262° |
| 2026-05-04 14:01 | 55.41787 | -4.29859 | 3680 ft | 219 kts | 262° |
| 2026-05-04 14:02 | 55.41751 | -4.32443 | 3583 ft | 207 kts | 283° |
| 2026-05-04 14:02 | 55.42326 | -4.34689 | 3494 ft | 197 kts | 300° |
| 2026-05-04 14:02 | 55.43032 | -4.36727 | 3295 ft | 193 kts | 300° |
| 2026-05-04 14:02 | 55.43734 | -4.38726 | 3008 ft | 192 kts | 300° |
| 2026-05-04 14:03 | 55.44426 | -4.40708 | 2710 ft | 185 kts | 300° |
| 2026-05-04 14:03 | 55.45071 | -4.42554 | 2455 ft | 168 kts | 299° |
| 2026-05-04 14:03 | 55.45655 | -4.44227 | 2178 ft | 152 kts | 299° |
| 2026-05-04 14:03 | 55.46184 | -4.45749 | 1938 ft | 139 kts | 300° |
| 2026-05-04 14:04 | 55.47132 | -4.48478 | 1510 ft | 122 kts | 300° |
| 2026-05-04 14:04 | 55.47565 | -4.49723 | 1315 ft | 118 kts | 301° |
| 2026-05-04 14:04 | 55.47984 | -4.50955 | 1123 ft | 116 kts | 300° |
| 2026-05-04 14:05 | 55.48816 | -4.53361 | 866 ft | 116 kts | 303° |
| 2026-05-04 14:05 | 55.49255 | -4.54586 | 600 ft | 117 kts | 298° |
| 2026-05-04 14:05 | 55.49684 | -4.55804 | 406 ft | 116 kts | 298° |
| 2026-05-04 14:06 | 55.50109 | -4.57013 | 205 ft | 115 kts | 296° |
| 2026-05-04 14:06 | 55.50510 | -4.58229 | 65 ft | 107 kts | 298° |
| 2026-05-04 14:06 | 55.50762 | -4.58948 | 55 ft | 17 kts | 301° |
| 2026-05-04 14:06 | 55.50812 | -4.59021 | 62 ft | 14 kts | 15° |
| 2026-05-04 14:07 | 55.50872 | -4.58837 | 65 ft | 20 kts | 64° |
| 2026-05-04 14:07 | 55.50928 | -4.58618 | 62 ft | 20 kts | 68° |
| 2026-05-04 14:07 | 55.50998 | -4.58371 | 64 ft | 25 kts | 65° |
| 2026-05-04 14:07 | 55.51056 | -4.58119 | 71 ft | 21 kts | 66° |
| 2026-05-04 14:08 | 55.51032 | -4.58008 | 68 ft | 13 kts | 196° |
| 2026-05-04 14:08 | 55.50978 | -4.58170 | 63 ft | 18 kts | 247° |
| 2026-05-04 14:08 | 55.50928 | -4.58379 | 60 ft | 15 kts | 248° |
| 2026-05-04 14:08 | 55.50932 | -4.58415 | 68 ft | 0 kts | 300° |